• Join FlightAware (Why Join?)
  • Login
  • US Flag 
04:42AM EST


 

Airport Tracker/Info


-or-


 

Live Flight TrackerFlight Track Log ✈ N6GD ✈ 11-Jun-2014 ✈ MYNN / NAS - KPIE

Flight Track Log - Related Links

Times and Time Zones

All times are in EDT time to prevent confusion due to time zone crossing. See the N6GD flight status page for this flight to view local times or setup timezone preferences in your user account.

Time Position Orientation Groundspeed Altitude Reporting Facility
EDT Latitude Longitude Course Direction KTS MPH feet Rate Location/Type
12:51PM 25.1869 -77.3842 310° West 265 305 11,000  Level Miami Center
12:53PM 25.2364 -77.4900 297° West 303 349 13,300 2,580 Climbing Miami Center
12:54PM 25.2581 -77.5806 285° West 310 357 16,400 2,580 Climbing Miami Center
12:55PM 25.2950 -77.6606 297° West 297 342 18,700 1,800 Climbing Miami Center
12:56PM 25.3389 -77.7439 300° West 309 356 20,200 1,200 Climbing Miami Center
12:57PM 25.3105 -77.8418 310° West  Level FlightAware Approximate
12:57PM 25.3889 -77.8425 299° West 346 398 21,300  Level Miami Center
12:58PM 25.4503 -77.9667 299° West 386 444 22,400 1,140 Climbing Miami Center
12:59PM 25.5036 -78.0775 298° West 405 466 23,700 1,320 Climbing Miami Center
01:00PM 25.5617 -78.1867 301° West 409 471 25,200 1,380 Climbing Miami Center
01:01PM 25.6156 -78.2978 298° West 410 472 26,600 1,380 Climbing Miami Center
01:02PM 25.6758 -78.4103 301° West 420 483 28,100 1,320 Climbing Miami Center
01:03PM 25.7331 -78.5228 299° West 422 486 29,400 1,260 Climbing Miami Center
01:04PM 25.8011 -78.6631 298° West 428 493 30,800 1,140 Climbing Miami Center
01:05PM 25.8617 -78.7833 299° West 442 509 31,800 540 Climbing Miami Center
01:06PM 25.9233 -78.9089 299° West 460 529 32,000 60 Climbing Miami Center
01:07PM 26.0014 -79.0306 306° West 482 555 32,000  Level Miami Center
01:08PM 26.0811 -79.1439 308° West 477 549 32,000  Level Miami Center
01:09PM 26.1631 -79.2597 308° West 477 549 32,000  Level Miami Center
01:10PM 26.2600 -79.4003 308° West 477 549 32,000  Level Miami Center
01:11PM 26.3406 -79.5178 307° West 477 549 32,000  Level Miami Center
01:12PM 26.4203 -79.6344 307° West 477 549 32,000  Level Miami Center
01:13PM 26.5000 -79.7531 307° West 479 551 32,000  Level Miami Center
01:14PM 26.5772 -79.8717 306° West 477 549 32,000  Level Miami Center
01:15PM 26.6669 -80.0161 305° West 473 544 32,000  Level Miami Center
01:16PM 26.7386 -80.1383 303° West 473 544 32,000  Level Miami Center
01:17PM 26.8075 -80.2564 303° West 473 544 32,000  Level Miami Center
01:18PM 26.8794 -80.3794 303° West 472 543 32,000  Level Miami Center
01:19PM 26.9494 -80.5039 302° West 472 543 32,000  Level Miami Center
01:20PM 27.0075 -80.6675 292° West 469 540 32,000  Level Miami Center
01:21PM 27.0494 -80.8061 289° West 471 542 32,000  Level Miami Center
01:22PM 27.0931 -80.9453 289° West 471 542 32,000 -120 Level Miami Center
01:24PM 27.1342 -81.0817 289° West 471 542 31,800 -900 Descending Miami Center
01:25PM 27.1769 -81.2186 289° West 465 535 30,200 -1,920 Descending Miami Center
01:26PM 27.2242 -81.3733 289° West 458 527 27,900 -2,460 Descending Miami Center
01:27PM 27.2661 -81.5139 289° West 456 525 25,200 -2,880 Descending Miami Center
01:28PM 27.3083 -81.6525 289° West 450 518 22,000 -2,940 Descending Miami Center
01:29PM 27.3447 -81.7725 289° West 424 488 19,200 -2,760 Descending Miami Center
01:30PM 27.3786 -81.8878 288° West 393 452 16,400 -2,640 Descending Miami Center
01:31PM 27.4111 -81.9972 289° West 366 421 13,800 -2,340 Descending Miami Center
01:32PM 27.4414 -82.0972 289° West 337 388 11,600 -1,380 Descending Miami Center
01:33PM 27.4883 -82.1794 303° West 311 358 11,000 -420 Descending Miami Center
01:34PM 27.5439 -82.2561 309° West 324 373 10,800 -780 Descending Miami Center
01:35PM 27.5406 -82.3483 268° West 294 338 9,500 -1,320 Descending Miami Center
01:36PM 27.5333 -82.4333 265° West 255 293 8,400 -1,320 Descending Tampa TRACON
01:37PM 27.5333 -82.5000 270° West 256 295 7,200 -1,200 Descending Tampa TRACON
01:38PM 27.5667 -82.5667 299° West 252 290 6,000 -1,200 Descending Tampa TRACON
01:39PM 27.6167 -82.6167 318° Northwest 249 287 4,700 -900 Descending Tampa TRACON
01:40PM 27.6500 -82.7000 294° West 244 281 4,100 -420 Descending Tampa TRACON
01:41PM 27.7000 -82.7333 329° Northwest 262 302 4,000 -60 Descending Tampa TRACON
01:42PM 27.7833 -82.7667 341° North 266 306 4,000  Level Tampa TRACON
01:43PM 27.8500 -82.8000 336° Northwest 257 296 4,000  Level Tampa TRACON
01:44PM 27.9000 -82.8000 360° North 253 291 4,000 -600 Level Tampa TRACON
01:45PM 27.9833 -82.8000 360° North 247 284 3,000 -960 Descending Tampa TRACON
01:46PM 28.0333 -82.8000 360° North 224 258 2,100 -600 Descending Tampa TRACON
01:47PM 28.0500 -82.7167 77° East 198 228 1,700 -300 Descending Tampa TRACON
01:48PM 28.0333 -82.7167 180° South 163 188 1,600 -300 Descending Tampa TRACON
01:49PM 27.9833 -82.7000 164° South 130 150 1,200 -540 Descending Tampa TRACON
01:50PM 27.9500 -82.7000 180° South 133 153 500 -720 Descending Tampa TRACON
01:52PM 27.9100 -82.6875 214° Southwest  Level Estimated